createdAt,value
2023-04-13T00:00:16.753Z,99372.13
2023-04-13T00:02:45.350Z,99377.56
2023-04-13T00:05:13.671Z,99386.63
2023-04-13T00:07:43.296Z,99382.19
2023-04-13T00:10:11.412Z,99375.53
2023-04-13T00:12:40.975Z,99369.41
2023-04-13T00:15:11.001Z,99379.28
2023-04-13T00:17:39.022Z,99374.84
2023-04-13T00:20:11.955Z,99377.41
2023-04-13T00:22:40.282Z,99405.53
2023-04-13T00:25:09.212Z,99371.13
2023-04-13T00:27:39.029Z,99368.19
2023-04-13T00:30:09.818Z,99362.75
2023-04-13T00:32:40.764Z,99371.78
2023-04-13T00:35:09.739Z,99365.66
2023-04-13T00:37:38.638Z,99362.06
2023-04-13T00:40:08.289Z,99363.09
2023-04-13T00:42:36.694Z,99354.91
2023-04-13T00:45:05.041Z,99359.50
2023-04-13T00:47:35.607Z,99354.91
2023-04-13T00:50:07.473Z,99355.75
2023-04-13T00:52:38.155Z,99356.78
2023-04-13T00:55:07.737Z,99358.63
2023-04-13T00:57:36.536Z,99366.81
2023-04-13T01:00:10.030Z,99349.44
2023-04-13T01:02:43.249Z,99361.38
2023-04-13T01:05:16.333Z,99352.16
2023-04-13T01:07:55.594Z,99357.47
2023-04-13T01:10:28.963Z,99352.16
2023-04-13T01:13:10.562Z,99352.00
2023-04-13T01:15:47.434Z,99346.88
2023-04-13T01:18:18.460Z,99348.41
2023-04-13T01:20:54.274Z,99347.19
2023-04-13T01:23:35.987Z,99348.44
2023-04-13T01:26:08.961Z,99345.16
2023-04-13T01:28:40.663Z,99350.31
2023-04-13T01:31:12.019Z,99336.81
2023-04-13T01:33:41.485Z,99341.25
2023-04-13T01:36:12.587Z,99344.84
2023-04-13T01:38:40.889Z,99346.72
2023-04-13T01:41:10.703Z,99333.94
2023-04-13T01:43:45.319Z,99340.06
2023-04-13T01:46:15.400Z,99342.78
2023-04-13T01:49:07.082Z,99341.94
2023-04-13T01:51:57.374Z,99351.81
2023-04-13T01:54:31.447Z,99340.06
2023-04-13T01:57:02.129Z,99342.97
2023-04-13T01:59:31.774Z,99344.50
2023-04-13T02:02:00.055Z,99341.78
2023-04-13T02:04:28.218Z,99344.66
2023-04-13T02:06:56.362Z,99346.38
2023-04-13T02:09:31.741Z,99347.38
2023-04-13T02:11:59.679Z,99342.78
2023-04-13T02:14:27.670Z,99339.19
2023-04-13T02:16:57.054Z,99334.44
2023-04-13T02:19:24.821Z,99340.91
2023-04-13T02:21:53.292Z,99349.97
2023-04-13T02:24:21.128Z,99343.66
2023-04-13T02:26:49.368Z,99341.78
2023-04-13T02:29:17.205Z,99347.38
2023-04-13T02:31:46.441Z,99340.91
2023-04-13T02:34:15.990Z,99343.84
2023-04-13T02:36:44.277Z,99353.69
2023-04-13T02:39:13.459Z,99358.28
2023-04-13T02:41:42.884Z,99349.28
2023-04-13T02:44:14.654Z,99344.84
2023-04-13T02:47:02.766Z,99350.31
2023-04-13T02:49:31.969Z,99351.16
2023-04-13T02:52:12.209Z,99355.91
2023-04-13T02:54:47.051Z,99353.19
2023-04-13T02:57:15.219Z,99355.06
2023-04-13T02:59:44.394Z,99349.59
2023-04-13T03:02:13.072Z,99366.97
2023-04-13T03:04:43.064Z,99356.91
2023-04-13T03:07:14.252Z,99362.53
2023-04-13T03:09:45.742Z,99369.84
2023-04-13T03:12:15.326Z,99361.66
2023-04-13T03:14:44.692Z,99364.56
2023-04-13T03:17:12.942Z,99363.53
2023-04-13T03:19:46.491Z,99367.97
2023-04-13T03:22:14.656Z,99385.69
2023-04-13T03:24:46.733Z,99371.88
2023-04-13T03:27:21.605Z,99375.47
2023-04-13T03:29:51.380Z,99372.75
2023-04-13T03:32:23.158Z,99370.00
2023-04-13T03:34:59.372Z,99380.06
2023-04-13T03:37:29.987Z,99377.53
2023-04-13T03:40:02.146Z,99391.16
2023-04-13T03:42:35.224Z,99388.44
2023-04-13T03:45:03.071Z,99382.13
2023-04-13T03:47:32.107Z,99374.09
2023-04-13T03:50:01.360Z,99377.53
2023-04-13T03:52:30.576Z,99383.97
2023-04-13T03:55:00.919Z,99394.03
2023-04-13T03:57:34.386Z,99387.72
2023-04-13T04:00:07.173Z,99400.34
2023-04-13T04:03:04.641Z,99393.47
2023-04-13T04:05:42.239Z,99394.19
2023-04-13T04:08:10.404Z,99402.38
2023-04-13T04:10:38.760Z,99414.28
2023-04-13T04:13:06.657Z,99415.31
2023-04-13T04:15:39.945Z,99418.03
2023-04-13T04:18:08.713Z,99419.03
2023-04-13T04:20:41.442Z,99413.06
2023-04-13T04:23:13.791Z,99424.81
2023-04-13T04:25:47.524Z,99423.09
2023-04-13T04:28:18.060Z,99424.13
2023-04-13T04:30:54.671Z,99422.56
2023-04-13T04:33:23.737Z,99427.16
2023-04-13T04:35:54.281Z,99428.16
2023-04-13T04:38:30.440Z,99424.75
2023-04-13T04:41:02.055Z,99430.50
2023-04-13T04:43:30.471Z,99449.44
2023-04-13T04:45:58.869Z,99451.47
2023-04-13T04:48:31.656Z,99460.50
2023-04-13T04:51:01.124Z,99468.97
2023-04-13T04:53:34.424Z,99465.44
2023-04-13T04:56:06.730Z,99471.88
2023-04-13T04:58:43.227Z,99479.22
2023-04-13T05:01:11.168Z,99482.09
2023-04-13T05:03:39.751Z,99483.94
2023-04-13T05:06:24.174Z,99496.44
2023-04-13T05:08:52.009Z,99493.63
2023-04-13T05:11:20.612Z,99497.72
2023-04-13T05:13:49.738Z,99506.06
2023-04-13T05:16:21.454Z,99517.16
2023-04-13T05:18:50.328Z,99510.66
2023-04-13T05:21:32.201Z,99515.25
2023-04-13T05:24:00.958Z,99527.34
2023-04-13T05:26:30.706Z,99531.47
2023-04-13T05:28:59.716Z,99547.97
2023-04-13T05:31:32.284Z,99546.28
2023-04-13T05:34:01.694Z,99544.22
2023-04-13T05:36:32.201Z,99558.56
2023-04-13T05:39:05.802Z,99557.72
2023-04-13T05:41:35.086Z,99561.44
2023-04-13T05:44:03.207Z,99567.75
2023-04-13T05:46:32.229Z,99566.75
2023-04-13T05:49:04.576Z,99578.66
2023-04-13T05:51:34.035Z,99580.25
2023-04-13T05:54:02.693Z,99578.53
2023-04-13T05:56:31.468Z,99580.25
2023-04-13T05:59:03.161Z,99594.59
2023-04-13T06:01:31.436Z,99598.31
2023-04-13T06:04:00.732Z,99596.59
2023-04-13T06:06:30.207Z,99612.81
2023-04-13T06:08:59.723Z,99608.22
2023-04-13T06:11:27.838Z,99612.81
2023-04-13T06:13:57.512Z,99620.13
2023-04-13T06:16:26.709Z,99634.47
2023-04-13T06:18:55.958Z,99618.94
2023-04-13T06:21:23.870Z,99635.16
2023-04-13T06:23:51.780Z,99638.75
2023-04-13T06:26:30.152Z,99653.97
2023-04-13T06:28:58.490Z,99650.38
2023-04-13T06:31:27.621Z,99656.69
2023-04-13T06:33:58.207Z,99662.88
2023-04-13T06:36:31.104Z,99662.00
2023-04-13T06:39:00.830Z,99666.28
2023-04-13T06:41:32.282Z,99668.72
2023-04-13T06:44:15.053Z,99674.31
2023-04-13T06:46:53.416Z,99668.84
2023-04-13T06:49:22.936Z,99681.19
2023-04-13T06:51:52.321Z,99681.06
2023-04-13T06:54:20.150Z,99679.88
2023-04-13T06:56:53.485Z,99681.31
2023-04-13T06:59:21.435Z,99685.75
2023-04-13T07:01:49.320Z,99683.72
2023-04-13T07:04:17.534Z,99690.44
2023-04-13T07:06:48.382Z,99692.56
2023-04-13T07:09:16.863Z,99693.97
2023-04-13T07:11:45.011Z,99704.28
2023-04-13T07:14:14.529Z,99706.09
2023-04-13T07:16:42.379Z,99713.81
2023-04-13T07:19:10.384Z,99709.59
2023-04-13T07:21:38.293Z,99710.03
2023-04-13T07:24:07.180Z,99707.53
2023-04-13T07:26:37.422Z,99713.56
2023-04-13T07:29:12.097Z,99713.09
2023-04-13T07:31:43.753Z,99716.41
2023-04-13T07:34:12.766Z,99713.84
2023-04-13T07:36:46.071Z,99728.19
2023-04-13T07:39:18.140Z,99731.75
2023-04-13T07:41:49.497Z,99735.53
2023-04-13T07:44:23.350Z,99736.38
2023-04-13T07:46:52.793Z,99742.69
2023-04-13T07:49:22.722Z,99740.28
2023-04-13T07:51:53.980Z,99750.19
2023-04-13T07:54:22.199Z,99756.78
2023-04-13T07:56:51.802Z,99755.91
2023-04-13T07:59:25.100Z,99758.78
2023-04-13T08:01:55.511Z,99758.63
2023-04-13T08:04:24.452Z,99763.56
2023-04-13T08:06:53.773Z,99772.78
2023-04-13T08:09:21.928Z,99769.19
2023-04-13T08:11:50.998Z,99775.66
2023-04-13T08:14:18.908Z,99772.91
2023-04-13T08:16:49.318Z,99778.53
2023-04-13T08:19:19.321Z,99782.97
2023-04-13T08:21:52.474Z,99782.25
2023-04-13T08:24:21.556Z,99787.56
2023-04-13T08:26:49.621Z,99784.84
2023-04-13T08:29:18.088Z,99797.50
2023-04-13T08:31:47.601Z,99795.63
2023-04-13T08:34:15.488Z,99793.59
2023-04-13T08:36:45.948Z,99796.88
2023-04-13T08:39:15.014Z,99795.16
2023-04-13T08:41:46.965Z,99806.78
2023-04-13T08:44:17.597Z,99813.41
2023-04-13T08:46:48.587Z,99805.94
2023-04-13T08:49:21.746Z,99800.47
2023-04-13T08:52:12.677Z,99814.00
2023-04-13T08:54:43.205Z,99811.28
2023-04-13T08:57:21.162Z,99820.00
2023-04-13T08:59:51.676Z,99825.47
2023-04-13T09:02:24.025Z,99824.59
2023-04-13T09:04:56.767Z,99831.63
2023-04-13T09:07:30.849Z,99838.81
2023-04-13T09:10:05.899Z,99844.44
2023-04-13T09:12:33.857Z,99844.44
2023-04-13T09:15:03.100Z,99847.03
2023-04-13T09:17:35.204Z,99849.03
2023-04-13T09:20:18.581Z,99853.06
2023-04-13T09:22:48.124Z,99858.66
2023-04-13T09:25:23.979Z,99860.78
2023-04-13T09:27:53.086Z,99858.03
2023-04-13T09:30:22.721Z,99857.75
2023-04-13T09:33:04.083Z,99874.53
2023-04-13T09:35:32.914Z,99875.25
2023-04-13T09:38:02.797Z,99887.56
2023-04-13T09:40:31.022Z,99887.28
2023-04-13T09:43:01.997Z,99880.47
2023-04-13T09:45:35.691Z,99890.97
2023-04-13T09:48:04.329Z,99900.03
2023-04-13T09:50:33.952Z,99896.97
2023-04-13T09:53:04.945Z,99892.06
2023-04-13T09:55:34.193Z,99893.81
2023-04-13T09:58:10.920Z,99891.31
2023-04-13T10:00:40.053Z,99889.44
2023-04-13T10:03:12.166Z,99892.56
2023-04-13T10:05:55.062Z,99885.06
2023-04-13T10:08:37.191Z,99889.75
2023-04-13T10:11:11.760Z,99888.13
2023-04-13T10:13:46.049Z,99899.31
2023-04-13T10:16:31.545Z,99904.16
2023-04-13T10:19:02.409Z,99900.94
2023-04-13T10:21:33.728Z,99899.63
2023-04-13T10:24:11.404Z,99902.03
2023-04-13T10:26:41.088Z,99901.03
2023-04-13T10:29:10.205Z,99903.75
2023-04-13T10:31:39.896Z,99908.06
2023-04-13T10:34:07.931Z,99909.94
2023-04-13T10:36:41.792Z,99916.13
2023-04-13T10:39:11.544Z,99925.50
2023-04-13T10:41:39.426Z,99923.75
2023-04-13T10:44:08.960Z,99926.50
2023-04-13T10:46:37.241Z,99922.22
2023-04-13T10:49:06.991Z,99931.28
2023-04-13T10:51:41.547Z,99936.75
2023-04-13T10:54:12.104Z,99938.94
2023-04-13T10:56:40.360Z,99933.63
2023-04-13T10:59:08.414Z,99940.94
2023-04-13T11:01:36.429Z,99951.75
2023-04-13T11:04:07.701Z,99942.69
2023-04-13T11:06:38.211Z,99945.56
2023-04-13T11:09:08.145Z,99946.28
2023-04-13T11:11:40.054Z,99953.31
2023-04-13T11:14:08.024Z,99959.81
2023-04-13T11:16:49.597Z,99953.84
2023-04-13T11:19:18.919Z,99951.25
2023-04-13T11:21:48.825Z,99960.03
2023-04-13T11:24:25.690Z,99964.00
2023-04-13T11:26:55.381Z,99965.75
2023-04-13T11:29:23.180Z,99963.88
2023-04-13T11:31:51.221Z,99967.31
2023-04-13T11:34:28.710Z,99974.22
2023-04-13T11:37:05.552Z,99966.72
2023-04-13T11:39:36.376Z,99973.03
2023-04-13T11:42:08.848Z,99980.25
2023-04-13T11:44:36.987Z,99975.94
2023-04-13T11:47:05.963Z,99981.81
2023-04-13T11:49:34.362Z,99984.41
2023-04-13T11:52:03.884Z,99979.75
2023-04-13T11:54:32.643Z,99994.31
2023-04-13T11:57:01.334Z,99984.41
2023-04-13T11:59:30.607Z,99986.28
2023-04-13T12:02:03.764Z,99991.91
2023-04-13T12:04:38.659Z,99991.75
2023-04-13T12:07:14.025Z,99998.25
2023-04-13T12:09:56.216Z,99995.50
2023-04-13T12:20:04.812Z,100010.28
2023-04-13T12:22:50.870Z,100000.56
2023-04-13T12:25:20.705Z,100012.94
2023-04-13T12:27:51.048Z,100013.16
2023-04-13T12:30:22.328Z,100017.00
2023-04-13T12:32:52.952Z,100017.22
2023-04-13T12:35:21.554Z,100007.69
2023-04-13T12:37:50.149Z,99991.47
2023-04-13T12:40:19.260Z,100008.97
2023-04-13T12:42:48.043Z,100010.06
2023-04-13T12:45:17.690Z,100017.47
2023-04-13T12:47:47.018Z,100006.72
2023-04-13T12:50:15.094Z,100006.28
2023-04-13T12:52:44.572Z,100006.47
2023-04-13T12:55:12.429Z,100014.06
2023-04-13T12:57:40.556Z,100016.19
2023-04-13T13:00:11.480Z,100021.03
2023-04-13T13:02:39.971Z,100018.66
2023-04-13T13:05:10.336Z,100027.25
2023-04-13T13:07:38.341Z,100021.44
2023-04-13T13:10:14.859Z,100041.88
2023-04-13T13:12:50.060Z,100034.16
2023-04-13T13:15:18.373Z,100037.47
2023-04-13T13:17:46.532Z,100037.81
2023-04-13T13:20:15.737Z,100035.47
2023-04-13T13:22:43.772Z,100038.00
2023-04-13T13:25:11.818Z,100032.91
2023-04-13T13:28:10.441Z,100042.38
2023-04-13T13:30:28.183Z,100039.47
2023-04-13T13:32:56.094Z,100041.88
2023-04-13T13:35:25.357Z,100039.50
2023-04-13T13:37:53.186Z,100033.84
2023-04-13T13:40:21.223Z,100028.00
2023-04-13T13:42:52.442Z,100046.03
2023-04-13T13:45:21.263Z,100039.38
2023-04-13T13:47:52.484Z,100049.66
2023-04-13T13:50:22.701Z,100050.38
2023-04-13T13:53:03.230Z,100047.13
2023-04-13T13:55:38.139Z,100047.97
2023-04-13T13:58:06.052Z,100052.97
2023-04-13T14:00:34.115Z,100051.78
2023-04-13T14:03:02.256Z,100055.06
2023-04-13T14:05:30.330Z,100057.63
2023-04-13T14:07:59.597Z,100059.03
2023-04-13T14:10:27.646Z,100052.53
2023-04-13T14:12:55.825Z,100045.69
2023-04-13T14:15:23.832Z,100051.69
2023-04-13T14:18:06.357Z,100049.47
2023-04-13T14:20:39.203Z,100049.97
2023-04-13T14:23:09.526Z,100052.06
2023-04-13T14:25:38.126Z,100049.81
2023-04-13T14:28:07.009Z,100053.09
2023-04-13T14:30:34.951Z,100055.50
2023-04-13T14:33:03.939Z,100065.13
2023-04-13T14:35:31.806Z,100054.84
2023-04-13T14:37:59.624Z,100064.44
2023-04-13T14:40:29.236Z,100059.47
2023-04-13T14:42:57.055Z,100065.63
2023-04-13T14:45:24.883Z,100060.84
2023-04-13T14:47:53.614Z,100060.50
2023-04-13T14:50:22.174Z,100070.28
2023-04-13T14:52:50.277Z,100063.75
2023-04-13T14:55:19.292Z,100062.56
2023-04-13T14:57:48.530Z,100065.84
2023-04-13T15:00:21.838Z,100066.00
2023-04-13T15:02:52.476Z,100066.72
2023-04-13T15:05:21.128Z,100073.03
2023-04-13T15:07:51.019Z,100075.63
2023-04-13T15:10:19.513Z,100072.88
2023-04-13T15:12:49.223Z,100078.03
2023-04-13T15:15:17.297Z,100076.31
2023-04-13T15:17:45.106Z,100085.59
2023-04-13T15:20:13.030Z,100083.69
2023-04-13T15:22:41.102Z,100083.53
2023-04-13T15:25:09.482Z,100086.13
2023-04-13T15:27:37.402Z,100088.88
2023-04-13T15:30:10.006Z,100088.50
2023-04-13T15:32:37.914Z,100082.50
2023-04-13T15:37:35.514Z,100092.28
2023-04-13T15:40:07.621Z,100088.69
2023-04-13T15:42:36.090Z,100088.00
2023-04-13T15:45:05.383Z,100093.34
2023-04-13T15:47:34.772Z,100097.78
2023-04-13T15:50:04.165Z,100098.84
2023-04-13T15:52:33.312Z,100101.59
2023-04-13T15:55:01.152Z,100103.63
2023-04-13T15:57:29.066Z,100098.13
2023-04-13T15:59:57.603Z,100111.19
2023-04-13T16:02:26.120Z,100108.59
2023-04-13T16:04:56.083Z,100110.31
2023-04-13T16:07:24.866Z,100114.09
2023-04-13T16:09:56.293Z,100109.81
2023-04-13T16:12:26.410Z,100111.72
2023-04-13T16:14:56.028Z,100111.88
2023-04-13T16:17:30.945Z,100116.50
2023-04-13T16:20:18.200Z,100118.22
2023-04-13T16:22:48.384Z,100122.16
2023-04-13T16:25:16.856Z,100122.16
2023-04-13T16:27:45.297Z,100135.03
2023-04-13T16:30:15.583Z,100135.03
2023-04-13T16:32:44.539Z,100140.69
2023-04-13T16:35:13.940Z,100132.28
2023-04-13T16:37:42.519Z,100142.59
2023-04-13T16:40:11.654Z,100142.59
2023-04-13T16:42:40.229Z,100145.34
2023-04-13T16:45:12.272Z,100143.44
2023-04-13T16:47:42.634Z,100151.03
2023-04-13T16:50:12.275Z,100153.78
2023-04-13T16:52:41.883Z,100150.16
2023-04-13T16:55:13.819Z,100151.88
2023-04-13T16:57:42.591Z,100150.47
2023-04-13T17:00:11.764Z,100157.53
2023-04-13T17:02:41.055Z,100159.44
2023-04-13T17:05:10.807Z,100157.72
2023-04-13T17:07:39.427Z,100162.50
2023-04-13T17:10:10.770Z,100165.25
2023-04-13T17:12:38.706Z,100163.53
2023-04-13T17:15:07.714Z,100169.88
2023-04-13T17:17:38.241Z,100174.50
2023-04-13T17:20:07.606Z,100181.91
2023-04-13T17:22:35.544Z,100177.63
2023-04-13T17:25:03.645Z,100183.13
2023-04-13T17:27:32.804Z,100187.75
2023-04-13T17:30:00.743Z,100189.78
2023-04-13T17:32:28.590Z,100190.81
2023-04-13T17:34:57.212Z,100191.84
2023-04-13T17:37:25.312Z,100196.63
2023-04-13T17:39:53.199Z,100196.81
2023-04-13T17:42:21.066Z,100195.97
2023-04-13T17:44:50.264Z,100200.59
2023-04-13T17:47:18.230Z,100210.16
2023-04-13T17:49:49.126Z,100214.81
2023-04-13T17:52:16.972Z,100211.38
2023-04-13T17:54:44.774Z,100219.78
2023-04-13T17:57:13.270Z,100220.81
2023-04-13T17:59:41.816Z,100229.22
2023-04-13T18:02:11.304Z,100231.25
2023-04-13T18:04:39.378Z,100236.06
2023-04-13T18:07:07.315Z,100233.63
2023-04-13T18:09:35.122Z,100238.44
2023-04-13T18:12:03.259Z,100241.34
2023-04-13T18:14:31.037Z,100246.16
2023-04-13T18:16:58.999Z,100245.59
2023-04-13T18:19:30.484Z,100256.59
2023-04-13T18:21:58.348Z,100248.84
2023-04-13T18:24:26.363Z,100259.13
2023-04-13T18:26:54.231Z,100259.44
2023-04-13T18:29:22.136Z,100258.72
2023-04-13T18:31:50.124Z,100274.50
2023-04-13T18:34:18.120Z,100271.03
2023-04-13T18:36:47.447Z,100274.81
2023-04-13T18:39:15.502Z,100276.16
2023-04-13T18:41:43.354Z,100276.47
2023-04-13T18:44:11.208Z,100287.78
2023-04-13T18:46:39.270Z,100292.56
2023-04-13T18:49:07.168Z,100292.03
2023-04-13T18:51:35.746Z,100289.59
2023-04-13T18:54:05.631Z,100300.72
2023-04-13T18:56:33.822Z,100300.34
2023-04-13T18:59:01.696Z,100297.91
2023-04-13T19:01:29.722Z,100300.13
2023-04-13T19:03:57.994Z,100316.03
2023-04-13T19:06:26.929Z,100321.00
2023-04-13T19:08:54.962Z,100325.91
2023-04-13T19:11:27.468Z,100324.19
2023-04-13T19:13:55.508Z,100331.34
2023-04-13T19:16:23.711Z,100328.94
2023-04-13T19:18:51.799Z,100332.84
2023-04-13T19:21:23.676Z,100333.13
2023-04-13T19:23:51.639Z,100335.50
2023-04-13T19:26:19.429Z,100338.25
2023-04-13T19:28:48.715Z,100341.28
2023-04-13T19:31:16.994Z,100338.00
2023-04-13T19:33:46.137Z,100343.78
2023-04-13T19:36:13.960Z,100341.34
2023-04-13T19:38:44.822Z,100345.28
2023-04-13T19:41:12.865Z,100354.66
2023-04-13T19:43:40.770Z,100359.44
2023-04-13T19:46:10.105Z,100361.31
2023-04-13T19:48:38.595Z,100373.47
2023-04-13T19:51:06.474Z,100376.50
2023-04-13T19:53:36.143Z,100372.91
2023-04-13T19:56:05.450Z,100382.28
2023-04-13T19:58:33.422Z,100383.28
2023-04-13T20:01:02.000Z,100390.81
2023-04-13T20:03:31.521Z,100385.34
2023-04-13T20:06:00.002Z,100383.72
2023-04-13T20:08:27.885Z,100390.38
2023-04-13T20:10:56.644Z,100396.84
2023-04-13T20:13:25.791Z,100389.81
2023-04-13T20:15:53.721Z,100397.34
2023-04-13T20:18:21.486Z,100395.59
2023-04-13T20:20:51.331Z,100398.34
2023-04-13T20:23:19.293Z,100396.06
2023-04-13T20:25:47.281Z,100392.47
2023-04-13T20:28:15.240Z,100400.84
2023-04-13T20:30:43.058Z,100401.97
2023-04-13T20:33:10.873Z,100405.75
2023-04-13T20:35:38.860Z,100403.19
2023-04-13T20:38:08.119Z,100410.53
2023-04-13T20:40:36.184Z,100413.56
2023-04-13T20:43:06.232Z,100424.50
2023-04-13T20:45:36.210Z,100445.72
2023-04-13T20:48:48.210Z,100448.44
2023-04-13T20:50:53.646Z,100447.91
2023-04-13T20:53:23.966Z,100456.13
2023-04-13T20:55:52.551Z,100452.81
2023-04-13T20:58:20.353Z,100461.16
2023-04-13T21:00:48.267Z,100453.25
2023-04-13T21:03:16.169Z,100463.34
2023-04-13T21:05:44.331Z,100459.03
2023-04-13T21:08:12.362Z,100463.63
2023-04-13T21:10:41.600Z,100467.25
2023-04-13T21:13:10.902Z,100465.78
2023-04-13T21:15:40.565Z,100471.28
2023-04-13T21:18:08.533Z,100469.56
2023-04-13T21:20:36.699Z,100463.38
2023-04-13T21:23:04.447Z,100464.38
2023-04-13T21:25:32.364Z,100475.34
2023-04-13T21:28:03.120Z,100465.25
2023-04-13T21:30:31.115Z,100460.91
2023-04-13T21:32:59.190Z,100458.19
2023-04-13T21:35:27.046Z,100467.41
2023-04-13T21:37:54.783Z,100467.41
2023-04-13T21:40:24.228Z,100469.28
2023-04-13T21:42:52.354Z,100470.31
2023-04-13T21:45:21.976Z,100462.09
2023-04-13T21:47:49.825Z,100466.84
2023-04-13T21:53:36.324Z,100464.72
2023-04-13T21:56:05.048Z,100469.16
2023-04-13T21:58:39.528Z,100466.25
2023-04-13T22:01:09.293Z,100461.97
2023-04-13T22:03:38.215Z,100469.47
2023-04-13T22:06:08.468Z,100472.19
2023-04-13T22:08:36.837Z,100469.75
2023-04-13T22:11:06.022Z,100474.34
2023-04-13T22:13:34.718Z,100469.88
2023-04-13T22:16:02.923Z,100477.41
2023-04-13T22:18:32.167Z,100479.28
2023-04-13T22:21:00.828Z,100475.94
2023-04-13T22:23:29.191Z,100472.47
2023-04-13T22:25:58.798Z,100470.75
2023-04-13T22:28:26.801Z,100470.19
2023-04-13T22:30:54.811Z,100469.31
2023-04-13T22:33:22.908Z,100476.81
2023-04-13T22:35:52.368Z,100470.47
2023-04-13T22:38:20.588Z,100472.66
2023-04-13T22:40:48.399Z,100471.94
2023-04-13T22:43:16.246Z,100473.06
2023-04-13T22:45:44.093Z,100480.41
2023-04-13T22:48:11.844Z,100472.50
2023-04-13T22:50:39.831Z,100475.53
2023-04-13T22:53:09.160Z,100480.13
2023-04-13T22:55:36.896Z,100462.28
2023-04-13T22:58:04.680Z,100469.78
2023-04-13T23:00:32.460Z,100471.88
2023-04-13T23:03:00.475Z,100473.06
2023-04-13T23:05:28.457Z,100475.06
2023-04-13T23:07:56.257Z,100475.34
2023-04-13T23:10:25.793Z,100471.88
2023-04-13T23:12:53.699Z,100463.09
2023-04-13T23:15:21.620Z,100469.72
2023-04-13T23:17:50.372Z,100471.03
2023-04-13T23:20:18.455Z,100478.63
2023-04-13T23:22:46.375Z,100469.84
2023-04-13T23:25:14.320Z,100480.22
2023-04-13T23:27:43.541Z,100484.06
2023-04-13T23:30:12.304Z,100475.44
2023-04-13T23:32:40.370Z,100479.31
2023-04-13T23:35:09.657Z,100472.41
2023-04-13T23:37:37.702Z,100475.41
2023-04-13T23:40:06.397Z,100476.72
2023-04-13T23:42:34.198Z,100473.38
2023-04-13T23:45:04.160Z,100479.00
2023-04-13T23:47:32.132Z,100481.28
2023-04-13T23:49:59.994Z,100486.88
2023-04-13T23:52:28.814Z,100481.69
2023-04-13T23:54:56.960Z,100481.81
2023-04-13T23:57:24.797Z,100477.53
2023-04-13T23:59:57.567Z,100477.53
